メインページ
METAR-TAF:

METAR-TAF

空港 :

Bradford, ペンシルバニア州, アメリカ合衆国

緯度: 41-47-55N, 経度: 078-38-09W, 海抜: 653m

現時点の気象観測

当レポートは17分前の05:53(UTC)に作成
北/北西の風 3kt
気温 4°C
湿度 81%
気圧 1015 hPa
視程: 16.1km
高度1100ftの曇り

METAR: KBFD 040553Z AUTO 34003KT 10SM OVC011 04/01 A2997 RMK AO2 SLP155 T00390011 10056 20039 56004

時間: 02:10 (06:10 UTC)

予報

当レポートは30分前の05:40(UTC)に作成
予報は04日の 06時(UTC)から 05日の 06時(UTC)まで有効
北/北西の風 5kt
視程: 10km
高度1100ftの曇り
近辺でにわか雨
04日の 0700時(UTC)から
の風 3kt
視程: 10km
高度700ftの曇り
04日の 1500時(UTC)から
変向風 4kt
視程: 10km
高度1200ftの曇り
04日の 2000時(UTC)から
変向風 4kt
視程: 10km
高度2300ftの千切れ雲あり

TAF: KBFD 040540Z 0406/0506 34005KT P6SM VCSH OVC011 FM040700 36003KT P6SM OVC007 FM041500 VRB04KT P6SM OVC012 FM042000 VRB04KT P6SM BKN023

4,000以上の空港の気象観測と天気予報(METAR報とTAF報)

利用可能な観測所は地図上に黄色い丸と赤い丸で示す。

丸の上にカーソルを重ねると観測所名を参照できる。

次にクリックすると気象観測と天気予報を参照できる。

マップの切り替え:黒色「×」印の緑ボタンをクリックして拡大、「-」印の緑ボタンをクリックして縮小、緑色の三角印をクリックして隣りの地図に切り替え


METAR-TAF: